KNEW Airport (Lakefront) Information

FAA: NEW - ICAO: KNEW

KNEW Airport Location

State Louisiana
County Orleans
City New Orleans
KNEW Airport is 4 miles northeast of New Orleans, LA.
Latitude 30-02-32.7000N
Longitude 090-01-41.7000W
Elevation 7ft

KNEW Airport METARs

METAR KNEW 181353Z 10006KT 10SM CLR 08/06 A3021 RMK AO2 SLP224 T00780056
Altimeter 30.21"
Temperature 7.8°C (46.0°F)
Wind 100° at 6KT
Clouds Skies are clear.
Visibility 10.0mi
Time observed: 2022-01-18T13:53:00Z

KNEW Airport Details

Status Operational
Activation April 1940
Ownership Public
Usage Public
Chart NEW ORLEANS
ATC on-site Yes
Beacon schedule sunset-sunrise
Beacon color clear green

KNEW Airport Contacts

Owner ORLEANS LEVEE DISTRICT
Owner address 6001 STARS AND STRIPES BLVD, NEW ORLEANS, LA 70126
Owner phone (504) 874-0459
Manager BRANDIN BUSCH
Manager address 1113 VORTEX DR., NEW IBERIA, LA 70560
Manager phone (337) 373-0105

KNEW Airport (Lakefront) Radio Frequencies

KNEW (Airport) Radio Frequencies

UNICOM N/A
Common traffic advisory frequency (CTAF) 119.9